Terminal Aerodrome Forecast
Issued by NWS

Home | Current Version | Previous Version | Text Only | Print | Product List | Glossary On
Versions: 1 2 3 4 5 6 7 8 9 10 11 12 13 14 15 16 17 18
000
FTUS41 KBOX 230207 AAB
TAFBED
TAF AMD
KBED 230207Z 2302/2324 07005KT 6SM BR OVC006
     FM230800 00000KT 1SM BR OVC001
     FM231100 00000KT 1/2SM FG OVC001
     FM231200 00000KT 3/4SM BR OVC003
     FM231400 18004KT P6SM BKN050
     FM231600 18005KT P6SM SCT150
     FM232100 17006KT P6SM BKN040=

USA.gov is the U.S. government's official web portal to all federal, state and local government web resources and services.